createdAt,value
2022-09-13T06:34:50.396Z,97034.72
2022-09-13T06:37:20.089Z,97031.06
2022-09-13T06:39:49.893Z,97035.22
2022-09-13T06:42:19.720Z,97020.78
2022-09-13T06:44:49.389Z,97026.53
2022-09-13T06:47:19.143Z,97020.88
2022-09-13T06:49:48.787Z,97016.75
2022-09-13T06:52:18.922Z,97013.09
2022-09-13T06:54:48.601Z,97009.78
2022-09-13T06:57:18.255Z,97018.25
2022-09-13T06:59:48.032Z,97021.56
2022-09-13T07:02:17.694Z,97020.19
2022-09-13T07:04:47.406Z,97020.88
2022-09-13T07:07:16.965Z,97019.97
2022-09-13T07:09:46.557Z,97031.19
2022-09-13T07:12:20.031Z,97035.28
2022-09-13T07:14:50.293Z,97021.41
2022-09-13T07:17:19.943Z,97021.31
2022-09-13T07:19:49.687Z,97024.25
2022-09-13T07:22:19.349Z,97018.19
2022-09-13T07:24:49.043Z,97017.66
2022-09-13T07:27:18.722Z,97019.50
2022-09-13T07:29:48.356Z,97012.25
2022-09-13T07:32:17.980Z,97005.00
2022-09-13T07:34:47.712Z,97006.47
2022-09-13T07:37:17.329Z,97007.03
2022-09-13T07:39:47.713Z,97006.44
2022-09-13T07:42:17.489Z,97016.47
2022-09-13T07:44:47.229Z,97027.34
2022-09-13T07:47:16.863Z,97022.94
2022-09-13T07:49:46.912Z,97012.88
2022-09-13T07:52:16.637Z,97019.03
2022-09-13T07:54:47.956Z,97010.94
2022-09-13T07:57:17.534Z,97012.34
2022-09-13T07:59:47.686Z,97003.91
2022-09-13T08:02:19.742Z,97009.34
2022-09-13T08:04:49.415Z,96998.47
2022-09-13T08:07:19.102Z,97006.22
2022-09-13T08:09:48.885Z,96996.97
2022-09-13T08:12:18.499Z,97006.66
2022-09-13T08:14:48.120Z,97011.16
2022-09-13T08:17:17.738Z,97003.50
2022-09-13T08:19:47.349Z,97006.13
2022-09-13T08:22:16.931Z,97006.72
2022-09-13T08:24:46.724Z,97005.34
2022-09-13T08:27:16.359Z,96992.56
2022-09-13T08:29:46.299Z,96995.53
2022-09-13T08:32:15.945Z,96994.97
2022-09-13T08:34:45.555Z,97000.38
2022-09-13T08:37:15.744Z,96992.34
2022-09-13T08:39:45.575Z,96998.47
2022-09-13T08:42:33.594Z,96997.88
2022-09-13T08:45:03.541Z,97000.75
2022-09-13T08:47:42.387Z,96993.41
2022-09-13T08:50:30.059Z,96995.16
2022-09-13T08:52:59.574Z,97002.84
2022-09-13T08:55:43.511Z,97002.94
2022-09-13T08:58:42.670Z,97000.81
2022-09-13T09:01:25.057Z,97005.72
2022-09-13T09:03:54.787Z,97002.38
2022-09-13T09:06:25.473Z,96998.97
2022-09-13T09:09:02.537Z,97002.25
2022-09-13T09:11:38.669Z,96997.22
2022-09-13T09:14:27.977Z,96999.34
2022-09-13T09:17:04.519Z,96990.03
2022-09-13T09:19:48.010Z,96998.44
2022-09-13T09:22:24.441Z,97001.72
2022-09-13T09:24:57.696Z,96990.81
2022-09-13T09:27:27.880Z,96985.41
2022-09-13T09:30:00.867Z,96983.47
2022-09-13T09:32:36.346Z,96984.81
2022-09-13T09:35:34.142Z,96968.66
2022-09-13T09:38:27.475Z,96971.94
2022-09-13T09:40:57.784Z,96963.69
2022-09-13T09:43:33.579Z,96963.00
2022-09-13T09:46:05.679Z,96960.69
2022-09-13T09:48:44.579Z,96948.84
2022-09-13T09:51:17.996Z,96952.47
2022-09-13T09:53:51.974Z,96950.53
2022-09-13T09:56:29.582Z,96945.44
2022-09-13T09:58:59.350Z,96946.72
2022-09-13T10:01:34.015Z,96943.22
2022-09-13T10:04:24.015Z,96938.91
2022-09-13T10:07:15.077Z,96929.44
2022-09-13T10:10:04.508Z,96938.56
2022-09-13T10:12:37.714Z,96928.69
2022-09-13T10:15:08.982Z,96931.13
2022-09-13T10:17:39.123Z,96922.41
2022-09-13T10:20:17.535Z,96919.63
2022-09-13T10:22:48.254Z,96923.25
2022-09-13T10:25:25.888Z,96922.47
2022-09-13T10:28:01.727Z,96910.59
2022-09-13T10:30:45.111Z,96908.66
2022-09-13T10:33:30.750Z,96911.41
2022-09-13T10:36:07.540Z,96899.91
2022-09-13T10:38:45.519Z,96913.81
2022-09-13T10:41:26.106Z,96913.03
2022-09-13T10:44:09.733Z,96908.66
2022-09-13T10:46:43.198Z,96907.84
2022-09-13T10:49:43.719Z,96899.50
2022-09-13T10:52:34.841Z,96901.09
2022-09-13T10:55:22.841Z,96890.78
2022-09-13T10:58:05.789Z,96897.13
2022-09-13T11:00:44.746Z,96898.31
2022-09-13T11:03:33.175Z,96885.19
2022-09-13T11:06:33.558Z,96891.16
2022-09-13T11:09:12.274Z,96894.72
2022-09-13T11:12:06.776Z,96908.25
2022-09-13T11:15:05.319Z,96904.63
2022-09-13T11:17:59.462Z,96900.25
2022-09-13T11:20:52.403Z,96899.03
2022-09-13T11:23:40.216Z,96904.63
2022-09-13T11:26:24.220Z,96896.22
2022-09-13T11:29:27.608Z,96901.38
2022-09-13T11:32:27.670Z,96904.94
2022-09-13T11:35:20.583Z,96900.50
2022-09-13T11:38:28.915Z,96906.47
2022-09-13T11:41:33.309Z,96900.06
2022-09-13T11:44:08.837Z,96894.47
2022-09-13T11:46:49.063Z,96891.66
2022-09-13T11:49:30.704Z,96906.31
2022-09-13T11:52:36.293Z,96891.91
2022-09-13T11:55:28.522Z,96886.66
2022-09-13T11:58:07.162Z,96887.03
2022-09-13T12:01:00.160Z,96889.78
2022-09-13T12:04:05.426Z,96889.78
2022-09-13T12:06:45.875Z,96880.56
2022-09-13T12:09:19.267Z,96885.78
2022-09-13T12:11:56.062Z,96875.34
2022-09-13T12:14:28.915Z,96880.41
2022-09-13T12:17:05.894Z,96881.59
2022-09-13T12:19:58.726Z,96889.56
2022-09-13T12:22:35.390Z,96876.72
2022-09-13T12:25:28.718Z,96884.19
2022-09-13T12:28:22.821Z,96866.50
2022-09-13T12:31:22.410Z,96857.16
2022-09-13T12:33:52.221Z,96854.41
2022-09-13T12:36:30.550Z,96855.38
2022-09-13T12:39:27.227Z,96848.44
2022-09-13T12:42:08.886Z,96842.94
2022-09-13T12:44:54.215Z,96833.13
2022-09-13T12:47:54.839Z,96829.66
2022-09-13T12:50:49.958Z,96814.88
2022-09-13T12:53:38.792Z,96816.50
2022-09-13T12:56:14.223Z,96816.72
2022-09-13T12:59:28.902Z,96823.06
2022-09-13T13:02:00.419Z,96806.78
2022-09-13T13:04:39.174Z,96803.03
2022-09-13T13:07:21.722Z,96805.44
2022-09-13T13:09:57.585Z,96800.81
2022-09-13T13:12:39.154Z,96798.94
2022-09-13T13:15:17.846Z,96800.53
2022-09-13T13:17:50.456Z,96801.97
2022-09-13T13:20:41.771Z,96800.09
2022-09-13T13:23:34.678Z,96787.97
2022-09-13T13:26:45.185Z,96785.53
2022-09-13T13:29:23.469Z,96787.00
2022-09-13T13:32:04.210Z,96791.47
2022-09-13T13:34:39.150Z,96789.53
2022-09-13T13:37:31.755Z,96786.34
2022-09-13T13:40:29.759Z,96777.63
2022-09-13T13:43:35.158Z,96775.38
2022-09-13T13:46:13.884Z,96764.81
2022-09-13T13:48:44.712Z,96758.78
2022-09-13T13:51:14.403Z,96764.22
2022-09-13T13:54:03.353Z,96767.16
2022-09-13T13:56:48.978Z,96767.06
2022-09-13T13:59:25.857Z,96761.34
2022-09-13T14:01:59.564Z,96761.19
2022-09-13T14:05:08.357Z,96757.69
2022-09-13T14:07:53.712Z,96770.94
2022-09-13T14:10:34.160Z,96775.28
2022-09-13T14:13:25.393Z,96769.00
2022-09-13T14:16:00.831Z,96767.22
2022-09-13T14:19:02.918Z,96758.16
2022-09-13T14:21:33.691Z,96757.25
2022-09-13T14:24:26.923Z,96751.47
2022-09-13T14:27:04.931Z,96750.50
2022-09-13T14:29:37.123Z,96748.22
2022-09-13T14:32:10.845Z,96740.22
2022-09-13T14:34:41.942Z,96744.56
2022-09-13T14:37:21.988Z,96744.66
2022-09-13T14:40:11.331Z,96749.38
2022-09-13T14:42:51.927Z,96744.09
2022-09-13T14:45:39.561Z,96750.75
2022-09-13T14:48:26.975Z,96747.66
2022-09-13T14:51:09.304Z,96749.81
2022-09-13T14:53:39.628Z,96733.31
2022-09-13T14:56:16.770Z,96728.09
2022-09-13T14:58:53.913Z,96729.44
2022-09-13T15:01:30.903Z,96718.31
2022-09-13T15:04:02.844Z,96720.44
2022-09-13T15:06:36.113Z,96718.22
2022-09-13T15:09:14.856Z,96709.31
2022-09-13T15:11:46.739Z,96720.13
2022-09-13T15:14:27.212Z,96711.53
2022-09-13T15:17:17.103Z,96717.34
2022-09-13T15:19:52.569Z,96714.91
2022-09-13T15:22:28.021Z,96727.22
2022-09-13T15:25:01.034Z,96726.63
2022-09-13T15:27:34.338Z,96718.03
2022-09-13T15:30:06.738Z,96727.78
2022-09-13T15:32:46.671Z,96716.69
2022-09-13T15:35:25.772Z,96724.41
2022-09-13T15:38:17.846Z,96723.78
2022-09-13T15:40:50.304Z,96729.13
2022-09-13T15:43:19.939Z,96733.19
2022-09-13T15:45:49.831Z,96739.22
2022-09-13T15:48:29.452Z,96736.06
2022-09-13T15:51:16.605Z,96734.22
2022-09-13T15:53:48.436Z,96739.47
2022-09-13T15:56:21.797Z,96735.94
2022-09-13T15:58:51.987Z,96747.97
2022-09-13T16:01:21.697Z,96740.09
2022-09-13T16:03:51.467Z,96740.09
2022-09-13T16:06:24.586Z,96740.91
2022-09-13T16:08:54.758Z,96735.38
2022-09-13T16:11:27.133Z,96734.63
2022-09-13T16:13:58.852Z,96736.31
2022-09-13T16:16:28.740Z,96735.91
2022-09-13T16:18:58.618Z,96733.97
2022-09-13T16:21:29.794Z,96730.47
2022-09-13T16:23:59.649Z,96729.69
2022-09-13T16:26:29.415Z,96734.91
2022-09-13T16:28:59.019Z,96728.53
2022-09-13T16:31:28.874Z,96730.94
2022-09-13T16:33:58.623Z,96733.72
2022-09-13T16:36:28.967Z,96734.16
2022-09-13T16:38:59.961Z,96729.38
2022-09-13T16:41:29.707Z,96730.59
2022-09-13T16:43:59.747Z,96732.59
2022-09-13T16:46:30.962Z,96736.22
2022-09-13T16:49:01.220Z,96731.06
2022-09-13T16:51:31.039Z,96735.06
2022-09-13T16:54:00.705Z,96734.63
2022-09-13T16:56:30.593Z,96727.91
2022-09-13T16:59:00.304Z,96740.63
2022-09-13T17:01:31.540Z,96738.25
2022-09-13T17:04:01.979Z,96732.69
2022-09-13T17:06:31.634Z,96744.63
2022-09-13T17:09:05.543Z,96734.72
2022-09-13T17:11:38.480Z,96732.72
2022-09-13T17:14:09.921Z,96736.25
2022-09-13T17:16:41.429Z,96737.84
2022-09-13T17:19:16.370Z,96742.22
2022-09-13T17:21:46.913Z,96741.03
2022-09-13T17:24:17.702Z,96734.28
2022-09-13T17:26:48.122Z,96725.53
2022-09-13T17:29:18.300Z,96727.91
2022-09-13T17:31:48.271Z,96732.69
2022-09-13T17:34:17.875Z,96731.09
2022-09-13T17:36:51.025Z,96724.75
2022-09-13T17:39:21.452Z,96725.53
2022-09-13T17:41:51.617Z,96731.09
2022-09-13T17:44:21.256Z,96728.69
2022-09-13T17:46:51.048Z,96731.47
2022-09-13T17:49:20.767Z,96739.00
2022-09-13T17:51:50.526Z,96735.81
2022-09-13T17:54:20.222Z,96723.91
2022-09-13T17:56:49.862Z,96731.44
2022-09-13T17:59:22.139Z,96733.03
2022-09-13T18:01:56.661Z,96721.53
2022-09-13T18:04:27.708Z,96727.47
2022-09-13T18:06:57.717Z,96725.06
2022-09-13T18:09:27.520Z,96721.47
2022-09-13T18:11:57.146Z,96708.00
2022-09-13T18:14:27.818Z,96723.06
2022-09-13T18:16:58.133Z,96723.81
2022-09-13T18:19:44.929Z,96722.22
2022-09-13T18:22:15.999Z,96718.25
2022-09-13T18:24:45.934Z,96723.00
2022-09-13T18:27:15.575Z,96721.41
2022-09-13T18:29:45.190Z,96718.63
2022-09-13T18:32:15.006Z,96727.75
2022-09-13T18:34:44.740Z,96726.16
2022-09-13T18:37:15.565Z,96724.56
2022-09-13T18:39:46.356Z,96735.28
2022-09-13T18:42:16.130Z,96724.94
2022-09-13T18:44:46.511Z,96728.13
2022-09-13T18:47:16.535Z,96738.81
2022-09-13T18:49:46.285Z,96729.28
2022-09-13T18:52:16.610Z,96729.25
2022-09-13T18:54:46.343Z,96736.81
2022-09-13T18:57:16.412Z,96735.59
2022-09-13T18:59:46.030Z,96736.38
2022-09-13T19:02:15.973Z,96737.56
2022-09-13T19:04:45.769Z,96739.91
2022-09-13T19:07:15.507Z,96733.97
2022-09-13T19:09:45.100Z,96728.00
2022-09-13T19:12:14.714Z,96725.25
2022-09-13T19:14:44.613Z,96721.28
2022-09-13T19:17:14.334Z,96732.75
2022-09-13T19:19:43.971Z,96718.50
2022-09-13T19:22:13.624Z,96718.06
2022-09-13T19:24:43.577Z,96721.22
2022-09-13T19:27:13.492Z,96715.28
2022-09-13T19:29:43.155Z,96715.28
2022-09-13T19:32:12.727Z,96709.34
2022-09-13T19:34:42.399Z,96719.25
2022-09-13T19:37:12.069Z,96705.38
2022-09-13T19:39:42.392Z,96718.44
2022-09-13T19:42:12.062Z,96714.47
2022-09-13T19:44:41.786Z,96719.59
2022-09-13T19:50:01.390Z,96715.66
2022-09-13T19:52:31.158Z,96713.25
2022-09-13T19:55:00.745Z,96704.13
2022-09-13T19:57:30.886Z,96702.91
2022-09-13T20:00:00.564Z,96702.09
2022-09-13T20:02:30.161Z,96708.84
2022-09-13T20:05:00.057Z,96702.91
2022-09-13T20:07:29.711Z,96690.22
2022-09-13T20:10:01.481Z,96690.63
2022-09-13T20:12:31.230Z,96697.34
2022-09-13T20:15:00.860Z,96695.75
2022-09-13T20:17:30.491Z,96698.13
2022-09-13T20:20:02.160Z,96688.22
2022-09-13T20:22:31.759Z,96694.16
2022-09-13T20:25:01.440Z,96688.59
2022-09-13T20:27:32.866Z,96684.63
2022-09-13T20:30:04.539Z,96680.69
2022-09-13T20:32:34.431Z,96683.00
2022-09-13T20:35:04.139Z,96674.28
2022-09-13T20:37:34.523Z,96682.59
2022-09-13T20:40:04.508Z,96683.75
2022-09-13T20:42:34.590Z,96680.22
2022-09-13T20:45:04.442Z,96678.19
2022-09-13T20:47:36.689Z,96682.94
2022-09-13T20:50:08.083Z,96678.19
2022-09-13T20:52:37.904Z,96681.38
2022-09-13T20:55:07.962Z,96684.09
2022-09-13T20:57:38.577Z,96689.25
2022-09-13T21:00:09.165Z,96676.94
2022-09-13T21:02:38.821Z,96678.53
2022-09-13T21:05:09.056Z,96680.88
2022-09-13T21:07:51.067Z,96676.53
2022-09-13T21:10:21.279Z,96678.91
2022-09-13T21:12:54.834Z,96679.28
2022-09-13T21:15:24.683Z,96674.94
2022-09-13T21:17:54.386Z,96682.03
2022-09-13T21:20:24.236Z,96670.16
2022-09-13T21:22:55.289Z,96678.06
2022-09-13T21:25:25.508Z,96678.84
2022-09-13T21:27:55.505Z,96664.22
2022-09-13T21:30:26.021Z,96664.59
2022-09-13T21:32:55.658Z,96670.13
2022-09-13T21:35:25.394Z,96655.84
2022-09-13T21:37:54.978Z,96657.00
2022-09-13T21:40:24.595Z,96657.81
2022-09-13T21:42:54.284Z,96659.78
2022-09-13T21:45:24.052Z,96658.22
2022-09-13T21:47:53.647Z,96650.69
2022-09-13T21:50:23.398Z,96653.84
2022-09-13T21:52:53.042Z,96653.84
2022-09-13T21:55:22.762Z,96657.41
2022-09-13T21:57:52.459Z,96653.47
2022-09-13T22:00:23.039Z,96654.66
2022-09-13T22:02:52.687Z,96652.25
2022-09-13T22:05:22.714Z,96652.63
2022-09-13T22:07:52.338Z,96650.25
2022-09-13T22:10:21.958Z,96651.44
2022-09-13T22:12:51.634Z,96644.72
2022-09-13T22:15:21.363Z,96645.47
2022-09-13T22:17:51.061Z,96647.44
2022-09-13T22:20:20.640Z,96642.28
2022-09-13T22:22:50.245Z,96643.03
2022-09-13T22:25:19.817Z,96644.63
2022-09-13T22:27:49.536Z,96646.59
2022-09-13T22:30:19.244Z,96642.66
2022-09-13T22:32:49.271Z,96638.28
2022-09-13T22:35:18.950Z,96645.00
2022-09-13T22:37:48.674Z,96644.97
2022-09-13T22:40:19.270Z,96630.75
2022-09-13T22:42:50.707Z,96631.94
2022-09-13T22:45:20.556Z,96627.56
2022-09-13T22:47:50.160Z,96631.13
2022-09-13T22:50:19.795Z,96631.94
2022-09-13T22:52:49.555Z,96635.06
2022-09-13T22:55:19.230Z,96624.38
2022-09-13T22:57:48.855Z,96631.47
2022-09-13T23:00:18.710Z,96630.25
2022-09-13T23:02:48.303Z,96627.47
2022-09-13T23:05:18.350Z,96626.69
2022-09-13T23:07:48.026Z,96631.84
2022-09-13T23:10:17.616Z,96624.72
2022-09-13T23:12:47.666Z,96636.19
2022-09-13T23:15:17.493Z,96627.88
2022-09-13T23:17:47.123Z,96624.28
2022-09-13T23:20:16.854Z,96613.22
2022-09-13T23:22:46.437Z,96616.38
2022-09-13T23:25:16.199Z,96619.09
2022-09-13T23:27:46.269Z,96628.94
2022-09-13T23:30:16.060Z,96619.47
2022-09-13T23:32:45.673Z,96623.81
2022-09-13T23:35:15.263Z,96625.31
2022-09-13T23:37:44.918Z,96616.59
2022-09-13T23:40:14.996Z,96619.69
2022-09-13T23:42:44.731Z,96612.59
2022-09-13T23:45:15.015Z,96618.88
2022-09-13T23:47:44.746Z,96620.44
2022-09-13T23:50:14.737Z,96610.94
2022-09-13T23:52:44.911Z,96604.56
2022-09-13T23:55:14.823Z,96605.34
2022-09-13T23:57:44.518Z,96594.25
